Hamilton City, CA (95951)

1:07 PM PST on December 19, 2014 (GMT -0800)
E and C | Change Station
CLOSE
Current Station
Personal Weather Station
Location: Chico, CA
Elevation: 157 ft
Nearby Weather Stations

Elev 157 ft 39.81 °N, 121.96 °W | Updated 4 minutes ago

Overcast
Overcast
53.4 °F
Feels Like 53.4 °F
N
4.0
Wind Variable Wind from South
Gusts 11.0 mph

Today
High -- | Low -- °F
--% Chance of Precip.
Yesterday
High -- | Low -- °F
Precip. -- in
7:24 AM 4:45 PM
Waning Crescent, 6% visible
Pressure 30.13 in
Visibility 10.0 miles
Clouds Mostly Cloudy 2300 ft
Overcast 6000 ft
Dew Point 50 °F
Humidity 87%
Rainfall 0.58 in
Snow Depth Not available.
UV 1 out of 12
Pollen .50 out of 12
Air Quality Not available.
Flu Activity Not available.
METAR KCIC 192050Z 13015KT 10SM BKN023 OVC060 12/09 A3013

More Conditions Fewer Conditions

Pressure 30.13 in
Visibility 10.0 miles
Clouds Mostly Cloudy 2300 ft
Overcast 6000 ft
Dew Point 50 °F
Humidity 87%
Rainfall 0.58 in
Snow Depth Not available.
UV 1 out of 12
Pollen .50 out of 12
Air Quality Not available.
Flu Activity Not available.
METAR KCIC 192050Z 13015KT 10SM BKN023 OVC060 12/09 A3013

More Conditions Fewer Conditions

10-Day Weather Forecast

Almanac

Astronomy

Dec. 19, 2014 Rise Set
Actual Time
Civil Twilight
Nautical Twilight
Astronomical Twilight
Moon
Length of Visible Light
Length of Day
Tomorrow will be .
, % of the Moon is Illuminated

Today's Extremes

State Highs State Lows

Community

WunderPhotos

Upload Photos

1,779,051 photos uploaded!

WunderBlogs® & News

Nearby

Air Quality

  Air Quality AQ Index Pollutant
Not available.

Snow Depth

Station Depth Elevation

Earthquake Activity

City Distance Mag. Time & Date
Minimum magnitude displayed is 2.5.

Coastal Water Temperatures

Place Temperature

Nearby Weather Stations